createdAt,value
2023-04-16T00:02:01.754Z,74.40
2023-04-16T00:04:28.926Z,75.20
2023-04-16T00:06:56.114Z,74.35
2023-04-16T00:09:23.185Z,71.32
2023-04-16T00:11:51.479Z,69.22
2023-04-16T00:14:18.436Z,74.00
2023-04-16T00:16:46.193Z,69.63
2023-04-16T00:19:13.377Z,68.30
2023-04-16T00:21:40.469Z,71.03
2023-04-16T00:24:07.654Z,78.15
2023-04-16T00:26:34.452Z,75.32
2023-04-16T00:29:01.301Z,69.95
2023-04-16T00:31:33.372Z,82.75
2023-04-16T00:34:00.811Z,66.78
2023-04-16T00:36:28.392Z,81.30
2023-04-16T00:38:56.481Z,75.55
2023-04-16T00:41:23.522Z,67.03
2023-04-16T00:43:50.779Z,74.85
2023-04-16T00:46:19.345Z,74.85
2023-04-16T00:48:46.727Z,78.07
2023-04-16T00:51:13.884Z,78.85
2023-04-16T00:53:41.070Z,75.70
2023-04-16T00:56:08.108Z,70.28
2023-04-16T00:58:35.588Z,76.43
2023-04-16T01:01:02.921Z,76.90
2023-04-16T01:03:43.785Z,65.20
2023-04-16T01:06:11.397Z,72.00
2023-04-16T01:08:38.536Z,69.82
2023-04-16T01:11:05.921Z,78.80
2023-04-16T01:13:33.955Z,74.35
2023-04-16T01:16:01.639Z,68.18
2023-04-16T01:18:28.512Z,67.45
2023-04-16T01:20:55.308Z,74.53
2023-04-16T01:23:22.724Z,66.72
2023-04-16T01:25:49.482Z,61.95
2023-04-16T01:28:16.536Z,60.38
2023-04-16T01:30:43.909Z,63.38
2023-04-16T01:33:29.150Z,65.25
2023-04-16T01:35:56.351Z,64.38
2023-04-16T01:38:23.181Z,61.83
2023-04-16T01:40:49.915Z,65.72
2023-04-16T01:43:17.444Z,62.38
2023-04-16T01:45:44.390Z,60.60
2023-04-16T01:48:12.057Z,60.95
2023-04-16T01:50:39.241Z,59.20
2023-04-16T01:53:06.178Z,53.88
2023-04-16T01:55:34.706Z,67.72
2023-04-16T01:58:01.689Z,59.17
2023-04-16T02:00:33.588Z,57.10
2023-04-16T02:03:00.675Z,60.38
2023-04-16T02:05:28.870Z,63.95
2023-04-16T02:07:55.803Z,60.13
2023-04-16T02:10:22.616Z,66.50
2023-04-16T02:12:50.211Z,53.83
2023-04-16T02:15:17.330Z,64.85
2023-04-16T02:17:46.837Z,65.60
2023-04-16T02:20:13.739Z,66.82
2023-04-16T02:22:51.281Z,63.38
2023-04-16T02:25:22.821Z,64.88
2023-04-16T02:27:50.265Z,59.83
2023-04-16T02:30:30.770Z,59.85
2023-04-16T02:32:57.633Z,70.00
2023-04-16T02:35:24.633Z,61.90
2023-04-16T02:37:51.576Z,60.90
2023-04-16T02:40:18.648Z,60.10
2023-04-16T02:42:45.589Z,56.63
2023-04-16T02:45:12.849Z,59.60
2023-04-16T02:47:39.618Z,63.28
2023-04-16T02:50:07.062Z,50.60
2023-04-16T02:52:33.867Z,58.10
2023-04-16T02:55:01.099Z,58.92
2023-04-16T02:57:28.043Z,56.92
2023-04-16T02:59:54.761Z,57.80
2023-04-16T03:02:21.804Z,57.42
2023-04-16T03:04:48.981Z,57.40
2023-04-16T03:07:16.252Z,56.35
2023-04-16T03:09:43.076Z,60.53
2023-04-16T03:12:10.094Z,59.20
2023-04-16T03:14:36.830Z,59.72
2023-04-16T03:17:03.616Z,63.38
2023-04-16T03:19:30.419Z,59.85
2023-04-16T03:21:57.229Z,61.25
2023-04-16T03:24:23.948Z,59.60
2023-04-16T03:26:50.837Z,60.58
2023-04-16T03:29:18.465Z,57.95
2023-04-16T03:31:45.710Z,55.75
2023-04-16T03:34:12.392Z,53.25
2023-04-16T03:36:40.733Z,56.72
2023-04-16T03:39:07.782Z,56.58
2023-04-16T03:41:36.456Z,55.03
2023-04-16T03:44:06.070Z,60.83
2023-04-16T03:46:34.150Z,58.08
2023-04-16T03:49:01.841Z,66.03
2023-04-16T03:51:29.274Z,63.85
2023-04-16T03:53:56.534Z,52.28
2023-04-16T03:56:24.364Z,63.63
2023-04-16T03:58:52.400Z,65.90
2023-04-16T04:01:19.460Z,66.07
2023-04-16T04:03:47.136Z,62.40
2023-04-16T04:06:15.242Z,68.93
2023-04-16T04:08:42.192Z,61.42
2023-04-16T04:11:08.943Z,72.88
2023-04-16T04:13:36.620Z,62.83
2023-04-16T04:16:04.654Z,61.92
2023-04-16T04:18:32.338Z,62.97
2023-04-16T04:21:00.146Z,66.03
2023-04-16T04:23:31.230Z,69.15
2023-04-16T04:25:58.267Z,67.65
2023-04-16T04:28:25.544Z,69.80
2023-04-16T04:30:52.392Z,71.15
2023-04-16T04:33:20.615Z,59.53
2023-04-16T04:35:47.984Z,63.95
2023-04-16T04:38:19.719Z,64.22
2023-04-16T04:40:47.252Z,63.03
2023-04-16T04:43:15.430Z,71.03
2023-04-16T04:45:42.383Z,65.00
2023-04-16T04:48:09.189Z,66.25
2023-04-16T04:50:36.805Z,74.35
2023-04-16T04:53:09.982Z,71.32
2023-04-16T04:55:38.898Z,65.47
2023-04-16T04:58:06.838Z,75.35
2023-04-16T05:00:34.990Z,66.88
2023-04-16T05:03:11.281Z,69.15
2023-04-16T05:05:39.706Z,65.57
2023-04-16T05:08:06.531Z,65.57
2023-04-16T05:10:33.368Z,66.43
2023-04-16T05:13:00.287Z,59.92
2023-04-16T05:15:27.119Z,62.40
2023-04-16T05:17:55.849Z,61.95
2023-04-16T05:20:28.855Z,65.63
2023-04-16T05:22:55.621Z,61.47
2023-04-16T05:25:22.685Z,61.78
2023-04-16T05:27:49.419Z,60.58
2023-04-16T05:30:19.347Z,69.03
2023-04-16T05:32:49.501Z,65.10
2023-04-16T05:35:17.550Z,67.75
2023-04-16T05:37:44.807Z,62.53
2023-04-16T05:40:13.542Z,59.83
2023-04-16T05:42:40.335Z,58.67
2023-04-16T05:45:07.692Z,58.28
2023-04-16T05:47:34.776Z,62.30
2023-04-16T05:50:01.914Z,56.58
2023-04-16T05:52:29.232Z,57.70
2023-04-16T05:54:56.186Z,57.25
2023-04-16T05:57:23.565Z,57.97
2023-04-16T05:59:50.372Z,62.63
2023-04-16T06:02:17.510Z,59.08
2023-04-16T06:04:44.528Z,55.05
2023-04-16T06:07:11.573Z,53.08
2023-04-16T06:09:38.436Z,57.03
2023-04-16T06:12:05.665Z,52.97
2023-04-16T06:14:33.780Z,56.03
2023-04-16T06:17:02.812Z,57.88
2023-04-16T06:19:32.916Z,56.25
2023-04-16T06:22:05.358Z,59.58
2023-04-16T06:24:42.760Z,51.78
2023-04-16T06:27:15.594Z,52.53
2023-04-16T06:29:51.859Z,58.28
2023-04-16T06:32:22.513Z,57.33
2023-04-16T06:34:49.282Z,50.58
2023-04-16T06:37:18.456Z,54.75
2023-04-16T06:39:45.237Z,50.53
2023-04-16T06:42:14.906Z,53.67
2023-04-16T06:44:41.954Z,49.90
2023-04-16T06:47:09.050Z,50.45
2023-04-16T06:49:36.932Z,43.17
2023-04-16T06:52:05.803Z,55.85
2023-04-16T06:54:32.958Z,49.28
2023-04-16T06:57:01.891Z,46.63
2023-04-16T06:59:28.798Z,48.05
2023-04-16T07:02:01.278Z,48.65
2023-04-16T07:04:28.752Z,51.58
2023-04-16T07:06:57.515Z,52.22
2023-04-16T07:09:25.042Z,47.35
2023-04-16T07:11:52.035Z,47.53
2023-04-16T07:14:22.804Z,47.33
2023-04-16T07:16:54.960Z,45.38
2023-04-16T07:19:25.068Z,47.22
2023-04-16T07:21:52.414Z,44.28
2023-04-16T07:24:24.249Z,44.88
2023-04-16T07:26:51.951Z,49.45
2023-04-16T07:29:19.043Z,46.08
2023-04-16T07:31:45.924Z,44.95
2023-04-16T07:34:12.639Z,49.35
2023-04-16T07:36:39.687Z,45.47
2023-04-16T07:39:06.857Z,42.75
2023-04-16T07:41:39.365Z,47.83
2023-04-16T07:44:06.484Z,45.13
2023-04-16T07:46:43.564Z,42.25
2023-04-16T07:49:14.054Z,42.80
2023-04-16T07:51:43.229Z,45.15
2023-04-16T07:54:11.068Z,42.00
2023-04-16T07:56:37.853Z,52.08
2023-04-16T07:59:14.825Z,45.15
2023-04-16T08:01:48.474Z,43.90
2023-04-16T08:04:17.447Z,47.47
2023-04-16T08:06:44.379Z,41.78
2023-04-16T08:09:11.576Z,41.53
2023-04-16T08:11:38.530Z,38.30
2023-04-16T08:14:06.529Z,43.72
2023-04-16T08:16:33.469Z,37.67
2023-04-16T08:19:01.184Z,43.03
2023-04-16T08:21:28.098Z,41.33
2023-04-16T08:23:54.900Z,42.45
2023-04-16T08:26:21.668Z,34.28
2023-04-16T08:28:48.435Z,38.15
2023-04-16T08:31:15.245Z,38.88
2023-04-16T08:33:42.082Z,42.15
2023-04-16T08:36:09.452Z,39.63
2023-04-16T08:38:36.300Z,37.08
2023-04-16T08:43:45.359Z,36.75
2023-04-16T08:46:12.681Z,36.28
2023-04-16T08:48:43.295Z,32.05
2023-04-16T08:51:11.893Z,33.67
2023-04-16T08:54:08.555Z,29.73
2023-04-16T08:56:37.445Z,31.05
2023-04-16T08:59:07.567Z,36.72
2023-04-16T09:01:35.809Z,28.55
2023-04-16T09:04:03.843Z,29.33
2023-04-16T09:06:31.474Z,34.55
2023-04-16T09:09:00.406Z,28.33
2023-04-16T09:11:27.316Z,33.83
2023-04-16T09:13:54.088Z,31.05
2023-04-16T09:16:21.448Z,27.42
2023-04-16T09:18:48.242Z,30.08
2023-04-16T09:21:15.903Z,28.92
2023-04-16T09:23:43.406Z,28.05
2023-04-16T09:26:10.271Z,26.55
2023-04-16T09:28:45.160Z,27.25
2023-04-16T09:31:19.480Z,26.38
2023-04-16T09:34:03.436Z,32.30
2023-04-16T09:36:31.360Z,29.88
2023-04-16T09:38:58.637Z,35.28
2023-04-16T09:41:28.636Z,30.80
2023-04-16T09:43:56.816Z,28.48
2023-04-16T09:46:31.696Z,42.53
2023-04-16T09:48:58.601Z,25.42
2023-04-16T09:51:28.231Z,29.05
2023-04-16T09:53:56.986Z,31.23
2023-04-16T09:56:26.043Z,28.73
2023-04-16T09:58:58.151Z,31.15
2023-04-16T10:01:25.448Z,29.52
2023-04-16T10:03:54.745Z,30.30
2023-04-16T10:06:23.143Z,27.70
2023-04-16T10:08:51.323Z,26.65
2023-04-16T10:11:19.507Z,27.38
2023-04-16T10:13:46.718Z,30.38
2023-04-16T10:16:13.561Z,30.20
2023-04-16T10:18:42.294Z,25.85
2023-04-16T10:21:12.641Z,28.63
2023-04-16T10:23:40.278Z,29.50
2023-04-16T10:26:07.106Z,31.85
2023-04-16T10:28:35.553Z,32.03
2023-04-16T10:31:09.232Z,28.20
2023-04-16T10:33:39.301Z,26.58
2023-04-16T10:36:14.364Z,31.42
2023-04-16T10:38:52.385Z,27.88
2023-04-16T10:41:22.405Z,29.00
2023-04-16T10:43:51.749Z,33.70
2023-04-16T10:46:35.931Z,28.30
2023-04-16T10:49:12.275Z,27.80
2023-04-16T10:51:39.228Z,28.27
2023-04-16T10:54:08.653Z,33.63
2023-04-16T10:56:36.715Z,32.08
2023-04-16T10:59:11.016Z,26.85
2023-04-16T11:01:42.576Z,26.38
2023-04-16T11:04:21.416Z,24.30
2023-04-16T11:07:03.124Z,28.80
2023-04-16T11:09:59.349Z,25.17
2023-04-16T11:12:38.690Z,25.15
2023-04-16T11:15:09.716Z,29.50
2023-04-16T11:17:39.250Z,24.58
2023-04-16T11:20:17.714Z,28.83
2023-04-16T11:22:48.142Z,25.92
2023-04-16T11:25:21.132Z,26.48
2023-04-16T11:27:47.870Z,24.08
2023-04-16T11:30:14.863Z,25.98
2023-04-16T11:32:41.641Z,22.58
2023-04-16T11:35:19.018Z,22.23
2023-04-16T11:37:46.958Z,24.95
2023-04-16T11:40:13.740Z,26.60
2023-04-16T11:42:41.743Z,23.83
2023-04-16T11:45:10.269Z,25.00
2023-04-16T11:48:03.389Z,24.00
2023-04-16T11:50:30.159Z,25.27
2023-04-16T11:53:03.112Z,25.05
2023-04-16T11:55:29.845Z,23.15
2023-04-16T11:57:56.616Z,23.95
2023-04-16T12:00:24.546Z,24.02
2023-04-16T12:02:55.360Z,22.88
2023-04-16T12:05:34.672Z,21.95
2023-04-16T12:08:03.271Z,23.23
2023-04-16T12:10:31.986Z,25.75
2023-04-16T12:13:17.350Z,27.70
2023-04-16T12:15:49.006Z,23.90
2023-04-16T12:18:16.597Z,21.57
2023-04-16T12:20:44.417Z,22.27
2023-04-16T12:23:25.182Z,21.15
2023-04-16T12:25:52.456Z,23.25
2023-04-16T12:28:32.020Z,24.50
2023-04-16T12:30:58.778Z,23.98
2023-04-16T12:33:25.701Z,22.17
2023-04-16T12:35:52.455Z,21.88
2023-04-16T12:38:19.287Z,22.17
2023-04-16T12:40:46.124Z,24.58
2023-04-16T12:43:13.107Z,24.95
2023-04-16T12:45:40.676Z,19.90
2023-04-16T12:48:07.675Z,19.48
2023-04-16T12:50:34.494Z,20.73
2023-04-16T12:53:01.221Z,20.77
2023-04-16T12:55:27.938Z,15.88
2023-04-16T12:57:54.636Z,15.52
2023-04-16T13:00:21.910Z,20.55
2023-04-16T13:02:48.732Z,18.40
2023-04-16T13:05:16.544Z,19.67
2023-04-16T13:07:43.389Z,18.88
2023-04-16T13:10:10.833Z,18.90
2023-04-16T13:12:37.560Z,17.00
2023-04-16T13:15:05.047Z,16.40
2023-04-16T13:17:31.826Z,16.05
2023-04-16T13:19:58.565Z,17.42
2023-04-16T13:22:25.345Z,18.00
2023-04-16T13:24:52.012Z,18.48
2023-04-16T13:27:18.723Z,20.25
2023-04-16T13:29:47.071Z,19.55
2023-04-16T13:32:14.651Z,20.70
2023-04-16T13:34:41.410Z,20.30
2023-04-16T13:37:08.196Z,18.83
2023-04-16T13:39:34.889Z,15.48
2023-04-16T13:42:01.797Z,18.45
2023-04-16T13:44:28.516Z,15.32
2023-04-16T13:46:56.038Z,20.50
2023-04-16T13:49:23.368Z,17.63
2023-04-16T13:51:50.164Z,20.10
2023-04-16T13:54:16.862Z,20.52
2023-04-16T13:56:43.991Z,15.82
2023-04-16T13:59:11.276Z,16.35
2023-04-16T14:01:38.314Z,18.63
2023-04-16T14:04:06.803Z,15.88
2023-04-16T14:06:34.738Z,16.75
2023-04-16T14:09:01.817Z,15.73
2023-04-16T14:11:28.877Z,15.05
2023-04-16T14:13:55.779Z,13.07
2023-04-16T14:16:22.603Z,16.55
2023-04-16T14:18:49.351Z,19.70
2023-04-16T14:21:16.365Z,17.20
2023-04-16T14:23:43.044Z,17.08
2023-04-16T14:26:09.786Z,17.40
2023-04-16T14:28:37.075Z,14.68
2023-04-16T14:31:03.781Z,12.82
2023-04-16T14:33:32.320Z,13.13
2023-04-16T14:36:01.171Z,18.20
2023-04-16T14:38:29.370Z,15.98
2023-04-16T14:40:56.060Z,13.73
2023-04-16T14:43:22.881Z,15.95
2023-04-16T14:45:49.567Z,13.90
2023-04-16T14:48:16.544Z,13.13
2023-04-16T14:50:44.129Z,14.40
2023-04-16T14:53:14.053Z,16.45
2023-04-16T14:55:40.692Z,15.65
2023-04-16T14:58:07.399Z,20.73
2023-04-16T15:00:37.497Z,20.73
2023-04-16T15:03:04.957Z,18.42
2023-04-16T15:05:31.924Z,18.33
2023-04-16T15:07:58.665Z,18.63
2023-04-16T15:10:25.478Z,13.43
2023-04-16T15:12:52.261Z,14.98
2023-04-16T15:15:18.962Z,20.35
2023-04-16T15:17:45.941Z,14.75
2023-04-16T15:20:13.447Z,26.60
2023-04-16T15:22:40.630Z,15.98
2023-04-16T15:25:07.968Z,17.40
2023-04-16T15:27:34.737Z,21.52
2023-04-16T15:30:01.456Z,15.68
2023-04-16T15:32:28.376Z,16.27
2023-04-16T15:34:55.215Z,16.98
2023-04-16T15:37:21.909Z,17.15
2023-04-16T15:39:48.550Z,23.17
2023-04-16T15:42:16.212Z,19.15
2023-04-16T15:44:42.974Z,19.75
2023-04-16T15:47:09.705Z,19.42
2023-04-16T15:49:36.493Z,22.70
2023-04-16T15:52:03.388Z,19.45
2023-04-16T15:54:31.725Z,23.48
2023-04-16T15:56:58.883Z,22.23
2023-04-16T15:59:26.738Z,21.30
2023-04-16T16:01:53.598Z,20.92
2023-04-16T16:04:22.830Z,23.10
2023-04-16T16:06:50.728Z,23.95
2023-04-16T16:09:17.557Z,26.42
2023-04-16T16:11:44.355Z,20.92
2023-04-16T16:14:11.190Z,20.73
2023-04-16T16:16:39.392Z,19.80
2023-04-16T16:19:06.172Z,23.00
2023-04-16T16:21:32.951Z,22.90
2023-04-16T16:23:59.630Z,18.65
2023-04-16T16:26:26.303Z,19.73
2023-04-16T16:28:53.185Z,20.13
2023-04-16T16:31:19.929Z,18.02
2023-04-16T16:33:46.591Z,17.83
2023-04-16T16:36:13.513Z,19.27
2023-04-16T16:38:41.034Z,18.63
2023-04-16T16:41:07.871Z,21.27
2023-04-16T16:43:36.462Z,18.98
2023-04-16T16:46:03.514Z,19.77
2023-04-16T16:48:30.375Z,22.42
2023-04-16T16:50:57.158Z,20.67
2023-04-16T16:53:23.851Z,19.35
2023-04-16T16:55:50.636Z,19.05
2023-04-16T16:58:17.332Z,19.52
2023-04-16T17:00:44.115Z,23.45
2023-04-16T17:03:11.049Z,20.98
2023-04-16T17:05:38.170Z,21.65
2023-04-16T17:08:05.246Z,19.85
2023-04-16T17:10:31.977Z,17.33
2023-04-16T17:12:58.727Z,19.08
2023-04-16T17:15:25.593Z,23.35
2023-04-16T17:17:52.272Z,21.77
2023-04-16T17:20:19.828Z,21.00
2023-04-16T17:22:46.616Z,24.08
2023-04-16T17:25:13.758Z,25.88
2023-04-16T17:27:40.412Z,25.27
2023-04-16T17:30:08.126Z,23.17
2023-04-16T17:32:34.897Z,21.10
2023-04-16T17:35:04.143Z,25.55
2023-04-16T17:37:31.097Z,26.75
2023-04-16T17:39:57.816Z,25.08
2023-04-16T17:42:24.853Z,23.75
2023-04-16T17:44:51.843Z,23.60
2023-04-16T17:47:18.618Z,19.27
2023-04-16T17:49:45.381Z,20.80
2023-04-16T17:52:12.128Z,23.45
2023-04-16T17:54:38.791Z,25.55
2023-04-16T17:57:05.803Z,22.65
2023-04-16T17:59:33.069Z,24.25
2023-04-16T18:01:59.970Z,23.40
2023-04-16T18:04:26.885Z,23.58
2023-04-16T18:06:53.746Z,21.98
2023-04-16T18:09:20.572Z,21.10
2023-04-16T18:11:47.270Z,28.33
2023-04-16T18:14:16.864Z,19.70
2023-04-16T18:16:45.916Z,24.85
2023-04-16T18:19:12.641Z,23.80
2023-04-16T18:21:39.498Z,22.08
2023-04-16T18:24:06.744Z,22.33
2023-04-16T18:26:35.790Z,27.77
2023-04-16T18:29:03.958Z,27.52
2023-04-16T18:31:31.181Z,30.23
2023-04-16T18:33:58.641Z,29.13
2023-04-16T18:36:26.820Z,37.28
2023-04-16T18:39:01.800Z,24.98
2023-04-16T18:41:29.996Z,24.65
2023-04-16T18:43:56.980Z,24.95
2023-04-16T18:46:23.932Z,28.73
2023-04-16T18:48:50.892Z,28.98
2023-04-16T18:51:17.581Z,30.23
2023-04-16T18:53:45.524Z,30.50
2023-04-16T18:56:12.551Z,30.70
2023-04-16T18:58:39.288Z,26.35
2023-04-16T19:01:11.021Z,28.95
2023-04-16T19:03:38.568Z,28.38
2023-04-16T19:06:06.116Z,25.42
2023-04-16T19:08:32.921Z,26.38
2023-04-16T19:10:59.878Z,31.00
2023-04-16T19:13:26.739Z,30.35
2023-04-16T19:16:01.231Z,26.05
2023-04-16T19:18:28.127Z,27.63
2023-04-16T19:21:01.409Z,29.90
2023-04-16T19:23:28.735Z,34.55
2023-04-16T19:25:56.628Z,31.48
2023-04-16T19:28:24.077Z,32.83
2023-04-16T19:30:51.745Z,31.45
2023-04-16T19:33:18.957Z,35.17
2023-04-16T19:35:46.315Z,36.00
2023-04-16T19:38:13.000Z,35.35
2023-04-16T19:40:40.287Z,30.25
2023-04-16T19:43:07.131Z,34.50
2023-04-16T19:45:33.866Z,37.28
2023-04-16T19:48:00.666Z,47.50
2023-04-16T19:50:27.390Z,41.53
2023-04-16T19:52:54.038Z,36.97
2023-04-16T19:55:20.922Z,36.17
2023-04-16T19:57:48.104Z,40.47
2023-04-16T20:00:15.202Z,38.65
2023-04-16T20:02:42.017Z,31.50
2023-04-16T20:05:09.416Z,35.13
2023-04-16T20:07:39.182Z,37.58
2023-04-16T20:10:06.210Z,44.20
2023-04-16T20:12:33.440Z,34.78
2023-04-16T20:15:00.348Z,34.58
2023-04-16T20:17:27.090Z,39.55
2023-04-16T20:19:57.496Z,36.72
2023-04-16T20:22:24.426Z,40.90
2023-04-16T20:24:55.016Z,38.17
2023-04-16T20:27:21.792Z,41.47
2023-04-16T20:29:49.165Z,40.13
2023-04-16T20:32:16.216Z,34.55
2023-04-16T20:34:46.093Z,39.58
2023-04-16T20:37:12.921Z,39.63
2023-04-16T20:39:40.637Z,39.20
2023-04-16T20:42:13.612Z,33.33
2023-04-16T20:44:40.625Z,35.53
2023-04-16T20:47:07.887Z,37.97
2023-04-16T20:49:34.843Z,35.53
2023-04-16T20:52:02.468Z,39.22
2023-04-16T20:54:32.169Z,42.67
2023-04-16T20:56:59.286Z,43.65
2023-04-16T20:59:26.100Z,44.03
2023-04-16T21:01:54.208Z,41.53
2023-04-16T21:04:22.126Z,40.70
2023-04-16T21:06:53.352Z,39.90
2023-04-16T21:09:20.823Z,41.22
2023-04-16T21:11:47.565Z,42.30
2023-04-16T21:14:14.238Z,38.35
2023-04-16T21:16:40.944Z,37.22
2023-04-16T21:19:08.959Z,40.10
2023-04-16T21:21:36.536Z,40.72
2023-04-16T21:24:03.377Z,39.33
2023-04-16T21:26:30.265Z,44.90
2023-04-16T21:28:56.996Z,40.50
2023-04-16T21:31:24.230Z,40.78
2023-04-16T21:33:51.004Z,41.22
2023-04-16T21:36:17.877Z,41.90
2023-04-16T21:38:44.581Z,40.78
2023-04-16T21:41:11.313Z,39.42
2023-04-16T21:43:38.001Z,42.50
2023-04-16T21:46:04.763Z,36.72
2023-04-16T21:48:31.559Z,37.72
2023-04-16T21:50:59.816Z,40.47
2023-04-16T21:53:28.002Z,37.75
2023-04-16T21:55:54.773Z,40.03
2023-04-16T21:58:21.556Z,40.35
2023-04-16T22:00:48.352Z,41.25
2023-04-16T22:03:17.238Z,43.22
2023-04-16T22:05:45.011Z,43.08
2023-04-16T22:10:44.059Z,47.38
2023-04-16T22:13:13.666Z,47.30
2023-04-16T22:15:40.380Z,42.20
2023-04-16T22:18:09.564Z,43.35
2023-04-16T22:20:38.820Z,43.65
2023-04-16T22:23:06.638Z,46.17
2023-04-16T22:25:33.661Z,47.35
2023-04-16T22:28:03.447Z,44.25
2023-04-16T22:30:30.254Z,42.15
2023-04-16T22:32:57.628Z,37.42
2023-04-16T22:35:24.429Z,45.15
2023-04-16T22:37:51.146Z,45.95
2023-04-16T22:40:18.222Z,47.63
2023-04-16T22:42:45.033Z,52.55
2023-04-16T22:45:12.704Z,52.30
2023-04-16T22:47:39.562Z,54.38
2023-04-16T22:50:07.004Z,56.55
2023-04-16T22:52:33.710Z,52.20
2023-04-16T22:55:00.533Z,47.25
2023-04-16T22:57:27.262Z,50.70
2023-04-16T22:59:54.130Z,56.58
2023-04-16T23:02:21.514Z,51.42
2023-04-16T23:04:48.330Z,54.20
2023-04-16T23:07:15.501Z,56.35
2023-04-16T23:09:42.505Z,62.08
2023-04-16T23:12:09.199Z,64.90
2023-04-16T23:14:36.785Z,60.40
2023-04-16T23:17:03.650Z,60.95
2023-04-16T23:19:31.113Z,66.88
2023-04-16T23:21:58.042Z,61.60
2023-04-16T23:24:24.812Z,65.85
2023-04-16T23:26:52.400Z,65.22
2023-04-16T23:29:20.400Z,66.35
2023-04-16T23:31:47.352Z,66.07
2023-04-16T23:34:14.141Z,62.28
2023-04-16T23:36:40.892Z,65.47
2023-04-16T23:39:07.638Z,69.65
2023-04-16T23:41:34.802Z,64.57
2023-04-16T23:44:01.586Z,66.65
2023-04-16T23:46:28.395Z,68.60
2023-04-16T23:48:55.403Z,63.58
2023-04-16T23:51:22.331Z,63.97
2023-04-16T23:53:49.073Z,64.22
2023-04-16T23:56:16.236Z,67.88
2023-04-16T23:58:42.893Z,71.13
